sensor_id;sensor_type;location;lat;lon;timestamp;pressure;altitude;pressure_sealevel;temperature;humidity
20889;BME280;10604;51.976;7.594;2023-01-28T00:02:22;102125.94;;;3.06;76.33
20889;BME280;10604;51.976;7.594;2023-01-28T00:04:48;102128.63;;;3.09;75.23
20889;BME280;10604;51.976;7.594;2023-01-28T00:07:13;102135.66;;;3.13;75.40
20889;BME280;10604;51.976;7.594;2023-01-28T00:09:39;102134.06;;;3.18;75.21
20889;BME280;10604;51.976;7.594;2023-01-28T00:12:05;102137.56;;;3.20;75.36
20889;BME280;10604;51.976;7.594;2023-01-28T00:14:30;102151.59;;;3.25;75.37
20889;BME280;10604;51.976;7.594;2023-01-28T00:16:56;102153.03;;;3.11;74.84
20889;BME280;10604;51.976;7.594;2023-01-28T00:19:21;102151.31;;;3.13;75.27
20889;BME280;10604;51.976;7.594;2023-01-28T00:21:47;102152.03;;;3.07;75.48
20889;BME280;10604;51.976;7.594;2023-01-28T00:24:12;102142.59;;;3.11;75.45
20889;BME280;10604;51.976;7.594;2023-01-28T00:26:38;102147.72;;;3.08;74.94
20889;BME280;10604;51.976;7.594;2023-01-28T00:29:04;102138.97;;;3.06;75.19
20889;BME280;10604;51.976;7.594;2023-01-28T00:31:29;102140.81;;;3.10;75.43
20889;BME280;10604;51.976;7.594;2023-01-28T00:33:55;102140.75;;;3.07;74.96
20889;BME280;10604;51.976;7.594;2023-01-28T00:36:23;102138.00;;;3.01;75.70
20889;BME280;10604;51.976;7.594;2023-01-28T00:38:53;102141.44;;;2.98;76.16
20889;BME280;10604;51.976;7.594;2023-01-28T00:41:22;102142.16;;;2.93;76.22
20889;BME280;10604;51.976;7.594;2023-01-28T00:43:48;102150.97;;;2.98;75.52
20889;BME280;10604;51.976;7.594;2023-01-28T00:46:14;102155.31;;;2.97;75.29
20889;BME280;10604;51.976;7.594;2023-01-28T00:48:41;102156.09;;;2.95;74.60
20889;BME280;10604;51.976;7.594;2023-01-28T00:51:08;102154.56;;;3.03;74.61
20889;BME280;10604;51.976;7.594;2023-01-28T00:53:35;102146.56;;;2.95;74.45
20889;BME280;10604;51.976;7.594;2023-01-28T00:56:02;102152.88;;;3.05;74.00
20889;BME280;10604;51.976;7.594;2023-01-28T00:58:28;102154.56;;;3.03;74.91
20889;BME280;10604;51.976;7.594;2023-01-28T01:00:53;102143.03;;;2.93;75.13
20889;BME280;10604;51.976;7.594;2023-01-28T01:03:19;102145.78;;;2.99;74.83
20889;BME280;10604;51.976;7.594;2023-01-28T01:05:44;102142.28;;;2.99;75.58
20889;BME280;10604;51.976;7.594;2023-01-28T01:08:10;102149.97;;;2.93;75.71
20889;BME280;10604;51.976;7.594;2023-01-28T01:10:37;102148.03;;;2.84;75.50
20889;BME280;10604;51.976;7.594;2023-01-28T01:13:04;102155.94;;;2.89;76.15
20889;BME280;10604;51.976;7.594;2023-01-28T01:15:30;102157.56;;;2.84;75.01
20889;BME280;10604;51.976;7.594;2023-01-28T01:17:56;102158.75;;;2.96;74.62
20889;BME280;10604;51.976;7.594;2023-01-28T01:20:25;102161.22;;;2.92;75.10
20889;BME280;10604;51.976;7.594;2023-01-28T01:22:50;102146.19;;;2.80;75.14
20889;BME280;10604;51.976;7.594;2023-01-28T01:25:17;102151.50;;;2.85;74.51
20889;BME280;10604;51.976;7.594;2023-01-28T01:27:44;102159.53;;;2.94;74.17
20889;BME280;10604;51.976;7.594;2023-01-28T01:30:12;102152.56;;;2.93;74.73
20889;BME280;10604;51.976;7.594;2023-01-28T01:32:38;102157.50;;;2.81;74.69
20889;BME280;10604;51.976;7.594;2023-01-28T01:35:04;102157.41;;;2.78;74.38
20889;BME280;10604;51.976;7.594;2023-01-28T01:37:31;102163.59;;;2.81;74.82
20889;BME280;10604;51.976;7.594;2023-01-28T01:39:57;102162.84;;;2.87;74.16
20889;BME280;10604;51.976;7.594;2023-01-28T01:42:23;102166.13;;;2.80;74.66
20889;BME280;10604;51.976;7.594;2023-01-28T01:47:46;102167.91;;;2.81;74.75
20889;BME280;10604;51.976;7.594;2023-01-28T01:50:22;102166.22;;;2.83;74.88
20889;BME280;10604;51.976;7.594;2023-01-28T01:52:52;102164.47;;;2.82;74.39
20889;BME280;10604;51.976;7.594;2023-01-28T01:55:20;102162.69;;;2.81;73.85
20889;BME280;10604;51.976;7.594;2023-01-28T01:57:50;102166.22;;;2.83;73.96
20889;BME280;10604;51.976;7.594;2023-01-28T02:00:17;102171.28;;;2.77;73.20
20889;BME280;10604;51.976;7.594;2023-01-28T02:02:46;102169.59;;;2.79;73.51
20889;BME280;10604;51.976;7.594;2023-01-28T02:05:17;102166.53;;;2.95;72.85
20889;BME280;10604;51.976;7.594;2023-01-28T02:07:44;102162.69;;;2.81;73.54
20889;BME280;10604;51.976;7.594;2023-01-28T02:10:11;102169.44;;;2.72;73.88
20889;BME280;10604;51.976;7.594;2023-01-28T02:12:40;102173.66;;;2.67;75.07
20889;BME280;10604;51.976;7.594;2023-01-28T02:15:10;102179.63;;;2.63;75.24
20889;BME280;10604;51.976;7.594;2023-01-28T02:17:36;102179.63;;;2.63;75.18
20889;BME280;10604;51.976;7.594;2023-01-28T02:20:10;102176.31;;;2.70;73.85
20889;BME280;10604;51.976;7.594;2023-01-28T02:25:57;102169.38;;;2.69;73.46
20889;BME280;10604;51.976;7.594;2023-01-28T02:31:07;102171.28;;;2.77;74.01
20889;BME280;10604;51.976;7.594;2023-01-28T02:37:01;102179.06;;;2.75;74.96
20889;BME280;10604;51.976;7.594;2023-01-28T02:39:34;102174.69;;;2.74;73.34
20889;BME280;10604;51.976;7.594;2023-01-28T02:42:09;102172.97;;;2.74;73.12
20889;BME280;10604;51.976;7.594;2023-01-28T02:44:37;102171.22;;;2.73;73.42
20889;BME280;10604;51.976;7.594;2023-01-28T02:47:10;102166.78;;;2.69;73.71
20889;BME280;10604;51.976;7.594;2023-01-28T02:49:56;102167.63;;;2.68;74.32
20889;BME280;10604;51.976;7.594;2023-01-28T03:03:56;102177.16;;;2.68;74.13
20889;BME280;10604;51.976;7.594;2023-01-28T03:06:27;102169.13;;;2.60;75.12
20889;BME280;10604;51.976;7.594;2023-01-28T03:09:00;102158.97;;;2.69;74.65
20889;BME280;10604;51.976;7.594;2023-01-28T03:11:50;102160.78;;;2.73;74.98
20889;BME280;10604;51.976;7.594;2023-01-28T03:14:35;102165.25;;;2.79;74.35
20889;BME280;10604;51.976;7.594;2023-01-28T03:17:33;102164.38;;;2.79;74.20
20889;BME280;10604;51.976;7.594;2023-01-28T03:20:20;102160.94;;;2.80;73.55
20889;BME280;10604;51.976;7.594;2023-01-28T03:23:09;102159.50;;;2.58;73.70
20889;BME280;10604;51.976;7.594;2023-01-28T03:25:57;102170.97;;;2.64;74.19
20889;BME280;10604;51.976;7.594;2023-01-28T03:28:45;102162.91;;;2.54;74.16
20889;BME280;10604;51.976;7.594;2023-01-28T03:31:32;102161.84;;;2.47;73.80
20889;BME280;10604;51.976;7.594;2023-01-28T03:34:17;102173.22;;;2.51;74.35
20889;BME280;10604;51.976;7.594;2023-01-28T03:37:03;102177.69;;;2.56;74.84
20889;BME280;10604;51.976;7.594;2023-01-28T03:39:29;102182.75;;;2.50;74.73
20889;BME280;10604;51.976;7.594;2023-01-28T03:41:57;102175.88;;;2.52;74.79
20889;BME280;10604;51.976;7.594;2023-01-28T03:44:24;102165.53;;;2.55;74.20
20889;BME280;10604;51.976;7.594;2023-01-28T03:47:09;102167.13;;;2.50;75.01
20889;BME280;10604;51.976;7.594;2023-01-28T03:49:41;102171.59;;;2.54;73.53
20889;BME280;10604;51.976;7.594;2023-01-28T03:52:07;102174.34;;;2.60;73.42
20889;BME280;10604;51.976;7.594;2023-01-28T03:54:32;102178.56;;;2.57;73.31
20889;BME280;10604;51.976;7.594;2023-01-28T03:56:57;102178.31;;;2.46;74.57
20889;BME280;10604;51.976;7.594;2023-01-28T03:59:23;102168.88;;;2.51;73.84
20889;BME280;10604;51.976;7.594;2023-01-28T04:01:48;102172.47;;;2.56;73.63
20889;BME280;10604;51.976;7.594;2023-01-28T04:04:15;102179.31;;;2.51;74.06
20889;BME280;10604;51.976;7.594;2023-01-28T04:06:48;102187.88;;;2.47;74.88
20889;BME280;10604;51.976;7.594;2023-01-28T04:09:14;102183.38;;;2.42;75.98
20889;BME280;10604;51.976;7.594;2023-01-28T04:11:39;102180.75;;;2.40;76.49
20889;BME280;10604;51.976;7.594;2023-01-28T04:14:04;102182.28;;;2.32;77.47
20889;BME280;10604;51.976;7.594;2023-01-28T04:16:30;102184.94;;;2.35;76.57
20889;BME280;10604;51.976;7.594;2023-01-28T04:18:55;102202.47;;;2.41;76.74
20889;BME280;10604;51.976;7.594;2023-01-28T04:21:22;102200.75;;;2.41;76.90
20889;BME280;10604;51.976;7.594;2023-01-28T04:23:47;102201.44;;;2.34;76.77
20889;BME280;10604;51.976;7.594;2023-01-28T04:26:12;102194.44;;;2.33;76.45
20889;BME280;10604;51.976;7.594;2023-01-28T04:28:38;102193.78;;;2.42;76.78
20889;BME280;10604;51.976;7.594;2023-01-28T04:31:03;102197.94;;;2.35;76.75
20889;BME280;10604;51.976;7.594;2023-01-28T04:33:28;102197.88;;;2.32;77.24
20889;BME280;10604;51.976;7.594;2023-01-28T04:35:54;102193.00;;;2.44;76.06
20889;BME280;10604;51.976;7.594;2023-01-28T04:38:19;102202.06;;;2.25;76.48
20889;BME280;10604;51.976;7.594;2023-01-28T04:40:48;102210.81;;;2.29;77.00
20889;BME280;10604;51.976;7.594;2023-01-28T04:43:14;102206.63;;;2.34;76.40
20889;BME280;10604;51.976;7.594;2023-01-28T04:45:39;102204.88;;;2.33;74.92
20889;BME280;10604;51.976;7.594;2023-01-28T04:48:05;102194.63;;;2.39;73.66
20889;BME280;10604;51.976;7.594;2023-01-28T04:50:30;102201.31;;;2.31;75.34
20889;BME280;10604;51.976;7.594;2023-01-28T04:52:55;102190.81;;;2.28;75.28
20889;BME280;10604;51.976;7.594;2023-01-28T04:55:21;102201.31;;;2.31;75.45
20889;BME280;10604;51.976;7.594;2023-01-28T04:57:46;102196.91;;;2.28;76.43
20889;BME280;10604;51.976;7.594;2023-01-28T05:00:14;102192.53;;;2.27;76.16
20889;BME280;10604;51.976;7.594;2023-01-28T05:02:40;102181.38;;;2.31;76.16
20889;BME280;10604;51.976;7.594;2023-01-28T05:05:05;102194.19;;;2.24;76.22
20889;BME280;10604;51.976;7.594;2023-01-28T05:07:33;102190.25;;;2.38;76.29
20889;BME280;10604;51.976;7.594;2023-01-28T05:09:59;102185.03;;;2.38;74.67
20889;BME280;10604;51.976;7.594;2023-01-28T05:12:24;102189.16;;;2.30;74.59
20889;BME280;10604;51.976;7.594;2023-01-28T05:14:49;102184.09;;;2.36;74.69
20889;BME280;10604;51.976;7.594;2023-01-28T05:17:14;102189.47;;;2.42;72.86
20889;BME280;10604;51.976;7.594;2023-01-28T05:19:40;102184.03;;;2.33;73.68
20889;BME280;10604;51.976;7.594;2023-01-28T05:22:05;102187.63;;;2.38;74.01
20889;BME280;10604;51.976;7.594;2023-01-28T05:24:31;102200.19;;;2.21;73.92
20889;BME280;10604;51.976;7.594;2023-01-28T05:26:56;102199.56;;;2.30;73.87
20889;BME280;10604;51.976;7.594;2023-01-28T05:29:21;102194.88;;;2.17;75.31
20889;BME280;10604;51.976;7.594;2023-01-28T05:31:47;102197.31;;;2.11;75.12
20889;BME280;10604;51.976;7.594;2023-01-28T05:34:12;102190.66;;;2.22;74.41
20889;BME280;10604;51.976;7.594;2023-01-28T05:36:37;102199.31;;;2.21;73.79
20889;BME280;10604;51.976;7.594;2023-01-28T05:39:05;102207.97;;;2.20;74.80
20889;BME280;10604;51.976;7.594;2023-01-28T05:41:32;102212.97;;;2.14;74.80
20889;BME280;10604;51.976;7.594;2023-01-28T05:43:57;102218.00;;;2.08;74.83
20889;BME280;10604;51.976;7.594;2023-01-28T05:46:22;102218.19;;;2.14;75.65
20889;BME280;10604;51.976;7.594;2023-01-28T05:48:49;102221.81;;;2.19;75.56
20889;BME280;10604;51.976;7.594;2023-01-28T05:51:15;102225.88;;;2.09;75.18
20889;BME280;10604;51.976;7.594;2023-01-28T05:53:41;102210.97;;;2.04;75.58
20889;BME280;10604;51.976;7.594;2023-01-28T05:56:07;102205.84;;;2.07;75.80
20889;BME280;10604;51.976;7.594;2023-01-28T05:58:32;102196.47;;;2.13;75.57
20889;BME280;10604;51.976;7.594;2023-01-28T06:00:58;102205.94;;;2.10;76.12
20889;BME280;10604;51.976;7.594;2023-01-28T06:03:23;102199.59;;;2.00;76.59
20889;BME280;10604;51.976;7.594;2023-01-28T06:05:48;102202.16;;;1.99;77.27
20889;BME280;10604;51.976;7.594;2023-01-28T06:08:14;102196.47;;;2.13;76.82
20889;BME280;10604;51.976;7.594;2023-01-28T06:10:39;102205.94;;;2.10;76.73
20889;BME280;10604;51.976;7.594;2023-01-28T06:13:05;102209.31;;;2.06;77.27
20889;BME280;10604;51.976;7.594;2023-01-28T06:15:30;102196.97;;;1.99;77.24
20889;BME280;10604;51.976;7.594;2023-01-28T06:17:56;102210.69;;;1.94;77.46
20889;BME280;10604;51.976;7.594;2023-01-28T06:20:21;102214.25;;;1.96;77.80
20889;BME280;10604;51.976;7.594;2023-01-28T06:22:49;102209.09;;;2.00;76.82
20889;BME280;10604;51.976;7.594;2023-01-28T06:25:15;102209.09;;;2.00;75.80
20889;BME280;10604;51.976;7.594;2023-01-28T06:27:41;102209.22;;;2.03;76.09
20889;BME280;10604;51.976;7.594;2023-01-28T06:30:06;102205.94;;;2.10;75.81
20889;BME280;10604;51.976;7.594;2023-01-28T06:32:32;102205.16;;;2.12;74.28
20889;BME280;10604;51.976;7.594;2023-01-28T06:34:58;102201.53;;;2.07;74.75
20889;BME280;10604;51.976;7.594;2023-01-28T06:37:23;102201.69;;;2.13;74.65
20889;BME280;10604;51.976;7.594;2023-01-28T06:39:48;102202.16;;;1.99;75.31
20889;BME280;10604;51.976;7.594;2023-01-28T06:42:14;102200.75;;;2.10;74.26
20889;BME280;10604;51.976;7.594;2023-01-28T06:44:39;102202.22;;;2.02;74.71
20889;BME280;10604;51.976;7.594;2023-01-28T06:47:05;102186.34;;;1.92;75.33
20889;BME280;10604;51.976;7.594;2023-01-28T06:49:30;102194.94;;;1.88;75.59
20889;BME280;10604;51.976;7.594;2023-01-28T06:51:55;102196.69;;;1.89;75.74
20889;BME280;10604;51.976;7.594;2023-01-28T06:54:21;102201.13;;;1.93;75.67
20889;BME280;10604;51.976;7.594;2023-01-28T06:56:46;102203.66;;;1.90;75.99
20889;BME280;10604;51.976;7.594;2023-01-28T06:59:12;102209.59;;;1.86;76.26
20889;BME280;10604;51.976;7.594;2023-01-28T07:01:37;102201.91;;;1.89;75.09
20889;BME280;10604;51.976;7.594;2023-01-28T07:04:03;102212.31;;;1.89;75.61
20889;BME280;10604;51.976;7.594;2023-01-28T07:06:28;102215.84;;;1.91;76.26
20889;BME280;10604;51.976;7.594;2023-01-28T07:08:54;102212.19;;;2.16;75.87
20889;BME280;10604;51.976;7.594;2023-01-28T07:11:19;102218.72;;;2.02;74.84
20889;BME280;10604;51.976;7.594;2023-01-28T07:13:44;102222.97;;;1.99;75.78
20889;BME280;10604;51.976;7.594;2023-01-28T07:16:12;102224.97;;;2.09;74.81
20889;BME280;10604;51.976;7.594;2023-01-28T07:18:37;102226.84;;;2.13;74.04
20889;BME280;10604;51.976;7.594;2023-01-28T07:21:03;102227.59;;;2.09;73.77
20889;BME280;10604;51.976;7.594;2023-01-28T07:23:28;102231.97;;;2.10;72.45
20889;BME280;10604;51.976;7.594;2023-01-28T07:25:53;102231.06;;;2.09;73.53
20889;BME280;10604;51.976;7.594;2023-01-28T07:28:19;102223.81;;;1.99;73.10
20889;BME280;10604;51.976;7.594;2023-01-28T07:30:49;102226.41;;;1.98;73.77
20889;BME280;10604;51.976;7.594;2023-01-28T07:33:15;102219.06;;;2.14;73.77
20889;BME280;10604;51.976;7.594;2023-01-28T07:35:41;102227.63;;;2.10;73.97
20889;BME280;10604;51.976;7.594;2023-01-28T07:38:06;102230.13;;;2.06;73.83
20889;BME280;10604;51.976;7.594;2023-01-28T07:40:31;102233.63;;;2.08;73.54
20889;BME280;10604;51.976;7.594;2023-01-28T07:42:57;102230.03;;;2.03;74.19
20889;BME280;10604;51.976;7.594;2023-01-28T07:45:23;102236.88;;;2.01;73.51
20889;BME280;10604;51.976;7.594;2023-01-28T07:47:56;102230.03;;;2.03;74.36
20889;BME280;10604;51.976;7.594;2023-01-28T07:50:22;102229.91;;;2.00;73.94
20889;BME280;10604;51.976;7.594;2023-01-28T07:52:48;102229.19;;;2.04;73.87
20889;BME280;10604;51.976;7.594;2023-01-28T07:55:13;102236.50;;;2.17;73.05
20889;BME280;10604;51.976;7.594;2023-01-28T07:57:51;102243.69;;;2.25;72.45
20889;BME280;10604;51.976;7.594;2023-01-28T08:00:17;102242.88;;;2.28;72.77
20889;BME280;10604;51.976;7.594;2023-01-28T08:02:42;102242.63;;;2.19;72.41
20889;BME280;10604;51.976;7.594;2023-01-28T08:05:14;102244.47;;;2.23;73.06
20889;BME280;10604;51.976;7.594;2023-01-28T08:07:39;102247.84;;;2.19;72.87
20889;BME280;10604;51.976;7.594;2023-01-28T08:10:05;102255.31;;;2.38;72.09
20889;BME280;10604;51.976;7.594;2023-01-28T08:12:30;102257.41;;;2.51;70.67
20889;BME280;10604;51.976;7.594;2023-01-28T08:14:56;102271.78;;;2.68;69.13
20889;BME280;10604;51.976;7.594;2023-01-28T08:17:21;102254.75;;;2.48;70.38
20889;BME280;10604;51.976;7.594;2023-01-28T08:19:47;102269.50;;;2.49;70.43
20889;BME280;10604;51.976;7.594;2023-01-28T08:22:12;102276.97;;;2.37;71.99
20889;BME280;10604;51.976;7.594;2023-01-28T08:24:37;102279.69;;;2.40;71.03
20889;BME280;10604;51.976;7.594;2023-01-28T08:27:03;102290.09;;;2.40;71.47
20889;BME280;10604;51.976;7.594;2023-01-28T08:29:28;102288.31;;;2.39;71.22
20889;BME280;10604;51.976;7.594;2023-01-28T08:31:54;102301.63;;;2.50;70.92
20889;BME280;10604;51.976;7.594;2023-01-28T08:34:19;102312.59;;;2.38;70.46
20889;BME280;10604;51.976;7.594;2023-01-28T08:36:44;102301.09;;;2.61;68.57
20889;BME280;10604;51.976;7.594;2023-01-28T08:39:10;102301.69;;;2.51;69.86
20889;BME280;10604;51.976;7.594;2023-01-28T08:41:35;102315.84;;;2.61;69.66
20889;BME280;10604;51.976;7.594;2023-01-28T08:44:00;102327.47;;;2.73;68.85
20889;BME280;10604;51.976;7.594;2023-01-28T08:46:26;102314.53;;;2.45;68.79
20889;BME280;10604;51.976;7.594;2023-01-28T08:48:51;102326.88;;;2.52;69.80
20889;BME280;10604;51.976;7.594;2023-01-28T08:51:16;102318.50;;;2.62;68.66
20889;BME280;10604;51.976;7.594;2023-01-28T08:53:42;102322.84;;;2.63;68.03
20889;BME280;10604;51.976;7.594;2023-01-28T08:56:07;102330.41;;;2.54;69.00
20889;BME280;10604;51.976;7.594;2023-01-28T08:58:32;102332.56;;;2.39;68.94
20889;BME280;10604;51.976;7.594;2023-01-28T09:01:03;102328.31;;;2.41;70.51
20889;BME280;10604;51.976;7.594;2023-01-28T09:03:28;102341.50;;;2.47;70.73
20889;BME280;10604;51.976;7.594;2023-01-28T09:05:59;102346.22;;;2.60;68.67
20889;BME280;10604;51.976;7.594;2023-01-28T09:08:24;102348.22;;;2.70;68.55
20889;BME280;10604;51.976;7.594;2023-01-28T09:10:54;102348.22;;;2.70;69.86
20889;BME280;10604;51.976;7.594;2023-01-28T09:13:19;102331.69;;;2.68;68.73
20889;BME280;10604;51.976;7.594;2023-01-28T09:15:44;102340.44;;;2.72;69.78
20889;BME280;10604;51.976;7.594;2023-01-28T09:18:10;102341.44;;;2.75;69.75
20889;BME280;10604;51.976;7.594;2023-01-28T09:20:35;102347.75;;;2.84;68.02
20889;BME280;10604;51.976;7.594;2023-01-28T09:23:01;102355.47;;;2.81;68.32
20889;BME280;10604;51.976;7.594;2023-01-28T09:25:26;102353.84;;;2.86;68.26
20889;BME280;10604;51.976;7.594;2023-01-28T09:27:52;102365.88;;;2.81;67.78
20889;BME280;10604;51.976;7.594;2023-01-28T09:30:17;102371.19;;;2.84;67.85
20889;BME280;10604;51.976;7.594;2023-01-28T09:32:43;102373.69;;;2.81;68.83
20889;BME280;10604;51.976;7.594;2023-01-28T09:35:09;102382.56;;;2.87;nan
20889;BME280;10604;51.976;7.594;2023-01-28T09:37:35;102370.53;;;2.91;66.19
20889;BME280;10604;51.976;7.594;2023-01-28T09:40:01;102369.31;;;2.80;67.19
20889;BME280;10604;51.976;7.594;2023-01-28T09:45:04;102358.72;;;2.73;68.73
20889;BME280;10604;51.976;7.594;2023-01-28T09:47:41;102367.72;;;2.85;68.98
20889;BME280;10604;51.976;7.594;2023-01-28T09:50:15;102356.34;;;2.81;69.00
20889;BME280;10604;51.976;7.594;2023-01-28T09:52:41;102345.13;;;2.84;69.96
20889;BME280;10604;51.976;7.594;2023-01-28T09:55:37;102355.72;;;2.90;69.75
20889;BME280;10604;51.976;7.594;2023-01-28T09:58:05;102360.53;;;3.07;69.55
20889;BME280;10604;51.976;7.594;2023-01-28T10:00:45;102368.50;;;3.12;68.82
20889;BME280;10604;51.976;7.594;2023-01-28T10:08:55;102363.84;;;3.33;68.15
20889;BME280;10604;51.976;7.594;2023-01-28T10:14:15;102361.28;;;3.36;68.09
20889;BME280;10604;51.976;7.594;2023-01-28T10:19:46;102363.16;;;3.42;66.49
20889;BME280;10604;51.976;7.594;2023-01-28T10:25:18;102373.09;;;3.57;64.81
20889;BME280;10604;51.976;7.594;2023-01-28T10:27:46;102372.91;;;3.47;65.02
20889;BME280;10604;51.976;7.594;2023-01-28T10:30:23;102374.44;;;3.39;65.60
20889;BME280;10604;51.976;7.594;2023-01-28T10:33:00;102376.19;;;3.40;64.25
20889;BME280;10604;51.976;7.594;2023-01-28T10:35:30;102383.63;;;3.25;66.31
20889;BME280;10604;51.976;7.594;2023-01-28T10:38:01;102381.38;;;3.07;67.73
20889;BME280;10604;51.976;7.594;2023-01-28T10:40:30;102383.78;;;3.00;68.01
20889;BME280;10604;51.976;7.594;2023-01-28T10:42:56;102380.44;;;3.04;67.14
20889;BME280;10604;51.976;7.594;2023-01-28T10:45:27;102378.16;;;3.16;67.54
20889;BME280;10604;51.976;7.594;2023-01-28T10:48:08;102390.09;;;3.08;66.52
20889;BME280;10604;51.976;7.594;2023-01-28T10:50:37;102392.53;;;3.02;67.52
20889;BME280;10604;51.976;7.594;2023-01-28T10:53:13;102378.72;;;3.06;66.96
20889;BME280;10604;51.976;7.594;2023-01-28T10:55:55;102375.69;;;3.22;67.20
20889;BME280;10604;51.976;7.594;2023-01-28T10:58:27;102389.50;;;3.18;67.01
20889;BME280;10604;51.976;7.594;2023-01-28T11:00:58;102390.50;;;2.92;67.34
20889;BME280;10604;51.976;7.594;2023-01-28T11:03:25;102394.47;;;3.09;66.64
20889;BME280;10604;51.976;7.594;2023-01-28T11:05:56;102382.59;;;3.20;65.44
20889;BME280;10604;51.976;7.594;2023-01-28T11:08:23;102379.13;;;3.21;64.35
20889;BME280;10604;51.976;7.594;2023-01-28T11:10:51;102375.25;;;3.38;63.65
20889;BME280;10604;51.976;7.594;2023-01-28T11:13:21;102384.03;;;3.09;65.33
20889;BME280;10604;51.976;7.594;2023-01-28T11:18:18;102365.22;;;3.53;64.37
20889;BME280;10604;51.976;7.594;2023-01-28T11:20:51;102369.66;;;3.58;64.84
20889;BME280;10604;51.976;7.594;2023-01-28T11:23:22;102374.56;;;3.80;64.57
20889;BME280;10604;51.976;7.594;2023-01-28T11:25:48;102367.59;;;4.16;63.91
20889;BME280;10604;51.976;7.594;2023-01-28T11:28:24;102357.25;;;5.06;59.21
20889;BME280;10604;51.976;7.594;2023-01-28T11:30:51;102350.72;;;5.30;56.62
20889;BME280;10604;51.976;7.594;2023-01-28T11:33:32;102349.59;;;5.16;56.54
20889;BME280;10604;51.976;7.594;2023-01-28T11:39:16;102345.34;;;4.77;59.67
20889;BME280;10604;51.976;7.594;2023-01-28T11:41:42;102329.38;;;4.62;59.62
20889;BME280;10604;51.976;7.594;2023-01-28T11:57:57;102306.44;;;4.92;61.54
20889;BME280;10604;51.976;7.594;2023-01-28T12:00:37;102318.13;;;5.11;60.15
20889;BME280;10604;51.976;7.594;2023-01-28T12:13:57;102292.63;;;4.99;61.04
20889;BME280;10604;51.976;7.594;2023-01-28T12:22:30;102235.03;;;4.93;59.61
20889;BME280;10604;51.976;7.594;2023-01-28T12:25:34;102223.28;;;4.70;59.22
20889;BME280;10604;51.976;7.594;2023-01-28T12:41:58;102230.97;;;4.61;60.62
20889;BME280;10604;51.976;7.594;2023-01-28T12:44:34;102234.44;;;4.60;62.03
20889;BME280;10604;51.976;7.594;2023-01-28T12:47:07;102237.72;;;4.50;62.28
20889;BME280;10604;51.976;7.594;2023-01-28T12:49:55;102236.53;;;4.32;60.34
20889;BME280;10604;51.976;7.594;2023-01-28T12:52:31;102233.72;;;4.23;61.96
20889;BME280;10604;51.976;7.594;2023-01-28T12:55:17;102236.13;;;4.58;59.82
20889;BME280;10604;51.976;7.594;2023-01-28T12:57:45;102237.81;;;4.56;61.28
20889;BME280;10604;51.976;7.594;2023-01-28T13:00:21;102223.91;;;4.57;62.25
20889;BME280;10604;51.976;7.594;2023-01-28T13:03:08;102220.38;;;4.55;62.27
20889;BME280;10604;51.976;7.594;2023-01-28T13:05:45;102222.25;;;4.62;61.52
20889;BME280;10604;51.976;7.594;2023-01-28T13:08:22;102223.19;;;4.65;62.11
20889;BME280;10604;51.976;7.594;2023-01-28T13:10:49;102226.22;;;4.88;61.00
20889;BME280;10604;51.976;7.594;2023-01-28T13:13:35;102228.00;;;4.89;59.78
20889;BME280;10604;51.976;7.594;2023-01-28T13:16:02;102239.69;;;4.63;60.92
20889;BME280;10604;51.976;7.594;2023-01-28T13:20:57;102236.59;;;4.82;60.26
20889;BME280;10604;51.976;7.594;2023-01-28T13:26:35;102251.91;;;4.64;60.25
20889;BME280;10604;51.976;7.594;2023-01-28T13:31:42;102255.88;;;4.89;58.56
20889;BME280;10604;51.976;7.594;2023-01-28T13:34:25;102249.78;;;4.90;60.07
20889;BME280;10604;51.976;7.594;2023-01-28T13:36:52;102255.47;;;4.69;62.62
20889;BME280;10604;51.976;7.594;2023-01-28T13:39:23;102261.31;;;4.54;61.45
20889;BME280;10604;51.976;7.594;2023-01-28T13:41:51;102269.13;;;4.53;61.27
20889;BME280;10604;51.976;7.594;2023-01-28T13:44:35;102268.72;;;4.78;60.86
20889;BME280;10604;51.976;7.594;2023-01-28T13:49:42;102258.13;;;4.70;59.40
20889;BME280;10604;51.976;7.594;2023-01-28T13:54:43;102248.28;;;4.56;61.71
20889;BME280;10604;51.976;7.594;2023-01-28T14:20:06;102183.25;;;3.81;63.18
20889;BME280;10604;51.976;7.594;2023-01-28T14:22:40;102188.22;;;3.70;62.81
20889;BME280;10604;51.976;7.594;2023-01-28T14:25:11;102185.31;;;3.57;64.62
20889;BME280;10604;51.976;7.594;2023-01-28T14:27:43;102184.78;;;3.32;64.49
20889;BME280;10604;51.976;7.594;2023-01-28T14:30:19;102186.19;;;3.18;66.54
20889;BME280;10604;51.976;7.594;2023-01-28T14:32:50;102199.84;;;3.08;67.44
20889;BME280;10604;51.976;7.594;2023-01-28T14:35:29;102209.53;;;3.13;66.49
20889;BME280;10604;51.976;7.594;2023-01-28T14:37:56;102219.38;;;3.25;66.54
20889;BME280;10604;51.976;7.594;2023-01-28T14:40:23;102222.97;;;3.30;65.37
20889;BME280;10604;51.976;7.594;2023-01-28T14:42:52;102237.34;;;3.14;66.42
20889;BME280;10604;51.976;7.594;2023-01-28T14:45:28;102244.97;;;3.07;67.33
20889;BME280;10604;51.976;7.594;2023-01-28T14:50:56;102241.47;;;3.05;67.39
20889;BME280;10604;51.976;7.594;2023-01-28T14:58:42;102233.84;;;3.12;66.51
20889;BME280;10604;51.976;7.594;2023-01-28T15:01:24;102240.81;;;3.13;66.94
20889;BME280;10604;51.976;7.594;2023-01-28T15:03:50;102242.22;;;3.01;65.98
20889;BME280;10604;51.976;7.594;2023-01-28T15:06:21;102250.03;;;3.01;66.86
20889;BME280;10604;51.976;7.594;2023-01-28T15:08:49;102242.91;;;2.94;67.50
20889;BME280;10604;51.976;7.594;2023-01-28T15:11:25;102234.16;;;2.92;68.31
20889;BME280;10604;51.976;7.594;2023-01-28T15:13:54;102238.19;;;2.79;67.45
20889;BME280;10604;51.976;7.594;2023-01-28T15:16:23;102241.78;;;2.83;67.31
20889;BME280;10604;51.976;7.594;2023-01-28T15:18:50;102242.13;;;2.63;68.65
20889;BME280;10604;51.976;7.594;2023-01-28T15:21:19;102238.19;;;2.46;68.84
20889;BME280;10604;51.976;7.594;2023-01-28T15:23:47;102245.91;;;2.43;69.48
20889;BME280;10604;51.976;7.594;2023-01-28T15:26:28;102251.59;;;2.60;69.82